Time;durP1;ratioP1;P1;durP2;ratioP2;P2;SDS_P1;SDS_P2;PMS_P1;PMS_P2;Temp;Humidity;BMP_temperature;BMP_pressure;BME280_temperature;BME280_humidity;BME280_pressure;Samples;Min_cycle;Max_cycle;Signal;HPM_P1;HPM_P2
2022/09/05 04:02:49;;;;;;;2.20;2.20;;;17.00;99.90;;;;;;4989486;28;20474;-70
2022/09/05 04:05:19;;;;;;;1.90;1.90;;;17.00;99.90;;;;;;4990518;28;20968;-70
2022/09/05 04:07:53;;;;;;;2.10;2.10;;;17.00;99.90;;;;;;4990502;28;20467;-70
2022/09/05 04:10:28;;;;;;;1.57;1.57;;;17.00;99.90;;;;;;4990952;28;20471;-70
2022/09/05 04:12:59;;;;;;;2.23;2.17;;;16.90;99.90;;;;;;4990649;28;20476;-71
2022/09/05 04:15:33;;;;;;;2.17;2.17;;;17.00;99.90;;;;;;5013966;23;20496;-73
2022/09/05 04:18:04;;;;;;;3.27;3.07;;;16.90;99.90;;;;;;4991091;28;20516;-74
2022/09/05 04:20:39;;;;;;;2.17;2.07;;;16.90;99.90;;;;;;4990621;28;20979;-73
2022/09/05 04:23:15;;;;;;;3.40;3.20;;;16.90;99.90;;;;;;4990516;28;20578;-74
2022/09/05 04:25:54;;;;;;;2.73;2.50;;;16.90;99.90;;;;;;4991124;28;20947;-73
2022/09/05 04:28:38;;;;;;;1.27;1.27;;;16.90;99.90;;;;;;4992907;28;20467;-73
2022/09/05 04:31:13;;;;;;;2.03;2.00;;;16.80;99.90;;;;;;4994399;28;20467;-73
2022/09/05 04:33:55;;;;;;;2.87;2.77;;;16.80;99.90;;;;;;4994756;28;20490;-73
2022/09/05 04:36:26;;;;;;;2.37;2.20;;;16.80;99.90;;;;;;4994770;28;20500;-73
2022/09/05 04:39:08;;;;;;;2.00;2.00;;;16.70;99.90;;;;;;4993937;28;20842;-72
2022/09/05 04:41:40;;;;;;;2.07;1.97;;;16.70;99.90;;;;;;4994707;28;20510;-73
2022/09/05 04:44:11;;;;;;;1.87;1.87;;;16.70;99.90;;;;;;4986853;28;20470;-74
2022/09/05 04:46:42;;;;;;;2.67;2.47;;;16.70;99.90;;;;;;4982493;28;20485;-73
2022/09/05 04:49:14;;;;;;;2.53;2.43;;;16.70;99.90;;;;;;4974336;28;20467;-73
2022/09/05 04:52:22;;;;;;;2.77;2.57;;;16.70;99.90;;;;;;4974842;28;20479;-73
2022/09/05 04:54:52;;;;;;;2.50;2.40;;;16.70;99.90;;;;;;4977972;28;20497;-73
2022/09/05 04:57:24;;;;;;;8.87;2.33;;;16.70;99.90;;;;;;4989763;28;20903;-74
2022/09/05 04:59:56;;;;;;;2.57;2.40;;;16.60;99.90;;;;;;4982799;28;20463;-73
2022/09/05 05:02:28;;;;;;;2.07;2.07;;;16.70;99.90;;;;;;4974545;28;20983;-73
2022/09/05 05:05:02;;;;;;;1.87;1.87;;;16.70;99.90;;;;;;4973939;28;20468;-73
2022/09/05 05:07:40;;;;;;;2.20;2.10;;;16.60;99.90;;;;;;4974423;28;20468;-72
2022/09/05 05:10:11;;;;;;;2.60;2.40;;;16.70;99.90;;;;;;4984661;28;20479;-73
2022/09/05 05:12:54;;;;;;;1.80;1.80;;;16.70;99.90;;;;;;4975523;28;20843;-72
2022/09/05 05:15:24;;;;;;;1.80;1.70;;;16.60;99.90;;;;;;4976603;28;20496;-74
2022/09/05 05:17:57;;;;;;;2.83;2.73;;;16.70;99.90;;;;;;4975875;28;20490;-74
2022/09/05 05:20:30;;;;;;;2.07;1.90;;;16.70;99.90;;;;;;4974749;28;20479;-73
2022/09/05 05:23:02;;;;;;;1.93;1.83;;;16.70;99.90;;;;;;4975693;28;20509;-73
2022/09/05 05:25:31;;;;;;;2.80;2.10;;;16.80;99.90;;;;;;4983959;28;20490;-73
2022/09/05 05:28:07;;;;;;;2.67;2.47;;;16.80;99.90;;;;;;4989760;28;20885;-72
2022/09/05 05:30:34;;;;;;;1.87;1.87;;;16.80;99.90;;;;;;4994022;28;20494;-73
2022/09/05 05:33:10;;;;;;;2.00;1.87;;;16.90;99.90;;;;;;4984366;28;20472;-73
2022/09/05 05:35:39;;;;;;;3.07;2.70;;;17.00;99.90;;;;;;4974198;28;20472;-73
2022/09/05 05:38:24;;;;;;;2.17;1.97;;;17.10;99.90;;;;;;4974645;28;20461;-73
2022/09/05 05:40:57;;;;;;;5.17;2.03;;;17.20;99.90;;;;;;4975048;28;20460;-73
2022/09/05 05:43:28;;;;;;;3.40;1.73;;;17.30;99.90;;;;;;4975210;28;21016;-73
2022/09/05 05:45:57;;;;;;;1.73;1.70;;;17.40;99.90;;;;;;4988543;28;20493;-72
2022/09/05 05:48:32;;;;;;;1.83;1.73;;;17.40;99.90;;;;;;4992997;28;20459;-72
2022/09/05 05:51:13;;;;;;;2.27;2.27;;;17.50;99.90;;;;;;4976049;28;20577;-72
2022/09/05 05:53:53;;;;;;;2.00;2.00;;;17.60;99.90;;;;;;4973926;28;20526;-72
2022/09/05 05:56:48;;;;;;;2.03;1.93;;;17.70;99.90;;;;;;4973712;28;20485;-72
2022/09/05 05:59:51;;;;;;;2.03;2.03;;;17.70;99.90;;;;;;4956419;28;20588;-70
2022/09/05 06:02:49;;;;;;;1.77;1.67;;;17.80;99.90;;;;;;4978179;28;20473;-71
2022/09/05 06:05:56;;;;;;;1.50;1.47;;;17.80;99.90;;;;;;4980787;28;20466;-73
2022/09/05 06:08:43;;;;;;;1.83;1.83;;;17.80;99.90;;;;;;4973473;28;20472;-73
2022/09/05 06:11:28;;;;;;;1.70;1.70;;;17.80;99.90;;;;;;4973778;28;20469;-72
2022/09/05 06:14:23;;;;;;;2.67;2.47;;;17.80;99.90;;;;;;4973364;28;20875;-72
2022/09/05 06:17:26;;;;;;;1.70;1.70;;;17.80;99.90;;;;;;4975874;28;20866;-72
2022/09/05 06:20:26;;;;;;;1.97;1.87;;;17.80;99.90;;;;;;4970815;28;20464;-73
2022/09/05 06:23:13;;;;;;;1.47;1.47;;;17.80;99.90;;;;;;4975880;28;20543;-71
2022/09/05 06:26:13;;;;;;;1.83;1.83;;;17.80;99.90;;;;;;4973212;28;20527;-73
2022/09/05 06:29:00;;;;;;;2.10;2.00;;;17.80;99.90;;;;;;4972751;28;21145;-73
2022/09/05 06:31:46;;;;;;;1.90;1.87;;;17.80;99.90;;;;;;4973371;28;20513;-72
2022/09/05 06:34:27;;;;;;;2.03;2.03;;;17.90;99.90;;;;;;4981415;28;20497;-73
2022/09/05 06:37:02;;;;;;;1.30;1.30;;;18.00;99.90;;;;;;4973146;28;20488;-71
2022/09/05 06:39:47;;;;;;;2.03;2.03;;;18.20;99.90;;;;;;4972322;28;20478;-72
2022/09/05 06:42:23;;;;;;;2.73;1.93;;;18.30;99.90;;;;;;4972650;28;20469;-72
2022/09/05 06:45:06;;;;;;;2.70;2.50;;;18.30;99.90;;;;;;4972516;28;20461;-72
2022/09/05 06:47:36;;;;;;;2.00;1.90;;;18.30;99.90;;;;;;4973053;28;20572;-73
2022/09/05 06:50:12;;;;;;;2.47;1.80;;;18.40;99.90;;;;;;4989902;28;20474;-70
2022/09/05 06:53:20;;;;;;;2.23;2.20;;;18.40;99.90;;;;;;4972047;28;20520;-68
2022/09/05 06:56:01;;;;;;;1.73;1.73;;;18.40;99.90;;;;;;4972902;28;20526;-71
2022/09/05 06:59:18;;;;;;;2.00;2.00;;;18.40;99.90;;;;;;4972774;28;20476;-71
2022/09/05 07:01:53;;;;;;;2.37;2.07;;;18.50;99.90;;;;;;4948838;28;20840;-72
2022/09/05 07:04:34;;;;;;;1.70;1.60;;;18.50;99.90;;;;;;4973769;28;20896;-73
2022/09/05 07:07:09;;;;;;;1.97;1.90;;;18.70;99.90;;;;;;4985223;28;20509;-74
2022/09/05 07:09:49;;;;;;;2.20;2.10;;;18.80;99.90;;;;;;4991024;28;20501;-71
2022/09/05 07:12:20;;;;;;;1.50;1.50;;;18.80;99.90;;;;;;4982812;28;20473;-73
2022/09/05 07:14:58;;;;;;;1.70;1.70;;;18.80;99.90;;;;;;4979375;28;20490;-72
2022/09/05 07:17:36;;;;;;;2.67;1.77;;;18.90;99.90;;;;;;4972195;28;20474;-72
2022/09/05 07:20:12;;;;;;;2.17;2.07;;;18.90;99.90;;;;;;4976788;28;20491;-72
2022/09/05 07:22:47;;;;;;;2.33;2.23;;;18.90;99.90;;;;;;4989903;28;20472;-72
2022/09/05 07:25:16;;;;;;;1.80;1.80;;;18.90;99.90;;;;;;4981010;28;20566;-73
2022/09/05 07:27:51;;;;;;;1.60;1.50;;;19.10;99.90;;;;;;4983867;28;20466;-73
2022/09/05 07:30:20;;;;;;;1.60;1.60;;;19.20;99.90;;;;;;4988589;28;20469;-73
2022/09/05 07:32:51;;;;;;;2.10;2.00;;;19.20;99.90;;;;;;4991492;28;20466;-72
2022/09/05 07:35:22;;;;;;;1.90;1.87;;;19.40;99.90;;;;;;4991289;28;20504;-71
2022/09/05 07:37:57;;;;;;;1.67;1.67;;;19.50;99.90;;;;;;4991407;28;20469;-71
2022/09/05 07:40:27;;;;;;;1.43;1.43;;;19.60;99.90;;;;;;4987008;28;20475;-72
2022/09/05 07:43:00;;;;;;;1.83;1.73;;;19.70;99.90;;;;;;4983544;28;20818;-72
2022/09/05 07:45:30;;;;;;;1.93;1.93;;;19.70;99.90;;;;;;4991537;28;20486;-71
2022/09/05 07:48:01;;;;;;;2.03;1.93;;;19.80;99.90;;;;;;4991615;28;20545;-71
2022/09/05 07:50:29;;;;;;;1.70;1.70;;;19.80;99.90;;;;;;4991303;28;20478;-72
2022/09/05 07:52:59;;;;;;;1.63;1.63;;;19.80;99.90;;;;;;4990986;28;20476;-72
2022/09/05 07:55:29;;;;;;;2.03;1.93;;;19.80;99.90;;;;;;4991062;28;20498;-72
2022/09/05 07:58:00;;;;;;;2.00;1.90;;;19.90;99.90;;;;;;4989470;28;20469;-72
2022/09/05 08:00:30;;;;;;;2.23;2.03;;;19.90;99.90;;;;;;4973668;28;20466;-72
2022/09/05 08:03:00;;;;;;;1.53;1.40;;;19.90;99.90;;;;;;4972906;28;20482;-73
2022/09/05 08:05:36;;;;;;;1.67;1.60;;;20.00;99.90;;;;;;4975496;28;20515;-72
2022/09/05 08:08:08;;;;;;;1.80;1.80;;;20.10;99.90;;;;;;4975256;28;20483;-72
2022/09/05 08:10:42;;;;;;;2.70;2.60;;;20.20;99.90;;;;;;4975709;28;20943;-72
2022/09/05 08:13:11;;;;;;;1.97;1.90;;;20.20;99.90;;;;;;4976913;28;20934;-73
2022/09/05 08:15:45;;;;;;;1.90;1.80;;;20.20;99.90;;;;;;4983906;28;20491;-71
2022/09/05 08:18:16;;;;;;;2.47;2.37;;;20.20;99.90;;;;;;4976161;28;20475;-71
2022/09/05 08:20:47;;;;;;;2.67;2.57;;;20.30;99.90;;;;;;4975326;28;20464;-71
2022/09/05 08:23:32;;;;;;;2.43;2.27;;;20.50;99.90;;;;;;4976191;28;20464;-74
2022/09/05 08:26:04;;;;;;;2.83;2.73;;;20.60;99.90;;;;;;4979301;28;20503;-76
2022/09/05 08:28:41;;;;;;;2.17;2.17;;;20.70;99.90;;;;;;4975944;28;20471;-72
2022/09/05 08:31:14;;;;;;;3.27;3.07;;;20.90;99.90;;;;;;4985627;28;20606;-72
2022/09/05 08:33:43;;;;;;;3.23;3.03;;;21.00;99.90;;;;;;4974867;28;20496;-71
2022/09/05 08:36:17;;;;;;;2.23;2.13;;;21.00;99.90;;;;;;4975411;28;20503;-72
2022/09/05 08:38:44;;;;;;;2.27;2.27;;;21.10;99.90;;;;;;4975003;28;20466;-72
2022/09/05 08:41:22;;;;;;;2.77;2.67;;;21.10;99.90;;;;;;4975528;28;20475;-73
2022/09/05 08:43:58;;;;;;;2.77;2.57;;;21.10;99.90;;;;;;4975227;28;20471;-71
2022/09/05 08:46:32;;;;;;;2.83;2.73;;;21.10;99.90;;;;;;4981999;28;20497;-71
2022/09/05 08:49:33;;;;;;;2.40;2.40;;;21.10;99.90;;;;;;4982559;28;20475;-71
2022/09/05 08:52:06;;;;;;;2.60;2.50;;;21.20;99.90;;;;;;4975080;28;20473;-71
2022/09/05 08:54:41;;;;;;;2.60;2.50;;;21.20;99.90;;;;;;4974438;28;20595;-72
2022/09/05 08:57:16;;;;;;;2.20;2.20;;;21.30;99.90;;;;;;4975480;28;20591;-73
2022/09/05 08:59:50;;;;;;;1.93;1.80;;;21.40;99.90;;;;;;4979873;28;20452;-72
2022/09/05 09:03:01;;;;;;;2.73;2.63;;;21.40;99.90;;;;;;4977454;28;20816;-72
2022/09/05 09:06:04;;;;;;;3.00;2.90;;;21.50;99.90;;;;;;4986618;28;20839;-73
2022/09/05 09:08:44;;;;;;;2.00;2.00;;;21.60;99.90;;;;;;4993645;28;20958;-73
2022/09/05 09:11:15;;;;;;;2.70;2.60;;;21.70;99.90;;;;;;4988276;28;20897;-72
2022/09/05 09:13:53;;;;;;;2.60;2.50;;;21.70;99.90;;;;;;4974565;28;20464;-72
2022/09/05 09:16:29;;;;;;;2.50;2.40;;;21.80;99.90;;;;;;4974725;28;20855;-71
2022/09/05 09:19:09;;;;;;;3.00;2.90;;;21.90;99.90;;;;;;4977539;28;20504;-71
2022/09/05 09:21:40;;;;;;;5.70;3.10;;;22.10;99.90;;;;;;4982863;28;20899;-72
2022/09/05 09:24:22;;;;;;;1.90;1.90;;;22.30;99.90;;;;;;4974183;28;20885;-71
2022/09/05 09:26:54;;;;;;;2.10;2.10;;;22.40;99.90;;;;;;4975233;28;20490;-72
2022/09/05 09:29:23;;;;;;;3.00;2.90;;;22.50;99.90;;;;;;4975732;28;20800;-72
2022/09/05 09:32:10;;;;;;;1.93;1.93;;;22.60;99.90;;;;;;4975274;28;20477;-71
2022/09/05 09:34:51;;;;;;;2.60;2.50;;;22.70;99.90;;;;;;4977227;28;21171;-71
2022/09/05 09:37:54;;;;;;;2.30;2.30;;;22.70;99.90;;;;;;4983212;28;20489;-71
2022/09/05 09:40:38;;;;;;;2.47;2.47;;;22.70;99.90;;;;;;4962276;28;20461;-71
2022/09/05 09:43:14;;;;;;;2.93;2.83;;;22.60;99.90;;;;;;4974597;28;20469;-72
2022/09/05 09:46:08;;;;;;;2.63;2.53;;;22.60;99.90;;;;;;4975845;28;20504;-72
2022/09/05 09:48:57;;;;;;;2.27;2.17;;;22.60;99.90;;;;;;4977613;28;20473;-72
2022/09/05 09:51:45;;;;;;;2.30;2.23;;;22.60;99.90;;;;;;4977550;28;20468;-71
2022/09/05 09:54:33;;;;;;;2.83;2.73;;;22.60;99.90;;;;;;4986985;28;20491;-72
2022/09/05 09:57:28;;;;;;;1.80;1.80;;;22.60;99.90;;;;;;4995144;28;20481;-71
2022/09/05 10:00:06;;;;;;;2.93;2.73;;;22.80;99.90;;;;;;4993217;28;20465;-71
2022/09/05 10:03:01;;;;;;;2.30;2.30;;;22.90;99.90;;;;;;4992970;28;20531;-74
2022/09/05 10:06:13;;;;;;;2.93;1.57;;;23.10;99.90;;;;;;4990758;28;20534;-72
2022/09/05 10:09:05;;;;;;;2.37;2.27;;;23.00;99.90;;;;;;4984685;28;20464;-72
2022/09/05 10:11:38;;;;;;;2.73;2.57;;;23.10;99.90;;;;;;4993323;28;20466;-72
2022/09/05 10:14:45;;;;;;;1.60;1.60;;;23.10;99.90;;;;;;4992991;28;20763;-71
2022/09/05 10:17:29;;;;;;;1.47;1.47;;;23.20;99.90;;;;;;5001715;23;20498;-73
2022/09/05 10:20:28;;;;;;;2.23;2.13;;;23.30;99.90;;;;;;4972858;28;20489;-73
2022/09/05 10:23:15;;;;;;;2.90;2.70;;;23.40;99.90;;;;;;4976592;28;20484;-73
2022/09/05 10:26:04;;;;;;;1.80;1.80;;;23.30;99.90;;;;;;4953281;28;20466;-73
2022/09/05 10:28:38;;;;;;;1.90;1.50;;;23.20;99.90;;;;;;4953701;28;20467;-73
2022/09/05 10:31:16;;;;;;;1.93;1.90;;;23.20;99.90;;;;;;4954066;28;20923;-73
2022/09/05 10:33:51;;;;;;;2.67;1.80;;;23.30;99.90;;;;;;4953800;28;20463;-73
2022/09/05 10:36:23;;;;;;;1.93;1.93;;;23.40;99.90;;;;;;4953846;28;20602;-73
2022/09/05 10:39:03;;;;;;;2.50;2.40;;;23.50;99.90;;;;;;4972496;28;20496;-73
2022/09/05 10:41:44;;;;;;;2.30;2.20;;;23.40;99.90;;;;;;4986176;28;20465;-74
2022/09/05 10:44:13;;;;;;;2.70;2.50;;;23.40;99.90;;;;;;4995215;28;20473;-73
2022/09/05 10:46:51;;;;;;;1.83;1.83;;;23.40;99.90;;;;;;4993826;28;20492;-72
2022/09/05 10:49:24;;;;;;;2.50;2.50;;;23.50;99.90;;;;;;4992374;28;20469;-73
2022/09/05 10:51:59;;;;;;;2.37;2.37;;;23.60;99.90;;;;;;4992705;28;20849;-72
2022/09/05 10:54:43;;;;;;;2.37;2.23;;;23.80;99.90;;;;;;4986000;28;20908;-72
2022/09/05 10:57:24;;;;;;;1.70;1.70;;;23.90;99.90;;;;;;4983630;28;20501;-71
2022/09/05 11:00:10;;;;;;;2.10;2.00;;;23.80;99.90;;;;;;4991821;28;20466;-72
2022/09/05 11:02:40;;;;;;;2.57;2.57;;;23.70;99.90;;;;;;4991524;28;20470;-73
2022/09/05 11:05:18;;;;;;;2.07;2.07;;;23.60;99.90;;;;;;4991234;28;20466;-72
2022/09/05 11:07:57;;;;;;;1.80;1.80;;;23.60;99.90;;;;;;4991093;28;20522;-72
2022/09/05 11:10:33;;;;;;;2.00;2.00;;;23.50;99.90;;;;;;4989242;28;20563;-72
2022/09/05 11:13:25;;;;;;;1.90;1.80;;;23.60;99.90;;;;;;4978365;28;20493;-71
2022/09/05 11:16:03;;;;;;;2.37;2.27;;;23.70;99.90;;;;;;4970905;28;20500;-72
2022/09/05 11:18:52;;;;;;;1.80;1.80;;;23.70;99.90;;;;;;4991481;28;20470;-72
2022/09/05 11:21:24;;;;;;;1.70;1.70;;;23.70;99.90;;;;;;4991756;28;20484;-72
2022/09/05 11:23:55;;;;;;;2.20;2.07;;;23.80;99.90;;;;;;4990697;28;20588;-73
2022/09/05 11:26:34;;;;;;;1.47;1.47;;;23.80;99.90;;;;;;4989477;28;20990;-73
2022/09/05 11:29:06;;;;;;;2.47;2.43;;;23.70;99.90;;;;;;4966485;28;20489;-73
2022/09/05 11:31:44;;;;;;;2.27;2.27;;;23.80;99.90;;;;;;4983474;28;20461;-73
2022/09/05 11:34:59;;;;;;;1.87;1.87;;;23.80;99.90;;;;;;4990891;28;20477;-73
2022/09/05 11:38:13;;;;;;;1.90;1.90;;;23.80;99.90;;;;;;4990400;28;20486;-69
2022/09/05 11:40:57;;;;;;;1.93;1.93;;;23.80;99.90;;;;;;4991156;28;20476;-70
2022/09/05 11:44:06;;;;;;;1.77;1.70;;;23.90;99.90;;;;;;4974617;28;20549;-71
2022/09/05 11:46:42;;;;;;;2.43;2.33;;;24.00;99.90;;;;;;4938177;28;20506;-70
2022/09/05 11:49:33;;;;;;;1.40;1.40;;;24.10;99.90;;;;;;4975307;28;20565;-70
2022/09/05 11:52:40;;;;;;;2.00;2.00;;;24.20;99.90;;;;;;4972002;28;20947;-70
2022/09/05 11:55:50;;;;;;;1.80;1.70;;;24.20;99.90;;;;;;4971322;28;20833;-70
2022/09/05 11:58:42;;;;;;;6.63;1.90;;;24.10;99.90;;;;;;4943067;28;20462;-70
2022/09/05 12:01:15;;;;;;;1.73;1.73;;;24.10;99.90;;;;;;4959034;28;20471;-70
2022/09/05 12:03:57;;;;;;;2.57;2.47;;;24.20;99.90;;;;;;4971366;28;20473;-70
2022/09/05 12:06:40;;;;;;;1.60;1.60;;;24.20;99.90;;;;;;4971620;28;20548;-69
2022/09/05 12:09:16;;;;;;;2.10;2.00;;;24.30;99.90;;;;;;4970830;28;20469;-69
2022/09/05 12:11:56;;;;;;;1.17;1.17;;;24.30;99.90;;;;;;4971511;28;20474;-71
2022/09/05 12:14:38;;;;;;;1.53;1.53;;;24.30;99.90;;;;;;4971745;28;20471;-70
2022/09/05 12:17:18;;;;;;;1.57;1.53;;;24.40;99.90;;;;;;4973018;28;20855;-71
2022/09/05 12:19:56;;;;;;;3.50;1.50;;;24.50;99.90;;;;;;4961688;28;20989;-70
2022/09/05 12:22:28;;;;;;;2.37;1.80;;;24.40;99.90;;;;;;4978580;28;20523;-70
2022/09/05 12:25:19;;;;;;;1.50;1.50;;;24.50;99.90;;;;;;4984983;28;20466;-70
2022/09/05 12:27:50;;;;;;;2.43;2.33;;;24.40;99.90;;;;;;4990877;28;20493;-70
2022/09/05 12:30:23;;;;;;;2.50;2.37;;;24.50;99.90;;;;;;4990728;28;20846;-71
2022/09/05 12:32:51;;;;;;;1.60;1.60;;;24.50;99.90;;;;;;4982542;28;20485;-69
2022/09/05 12:35:30;;;;;;;1.40;1.40;;;24.40;99.90;;;;;;4973431;28;20557;-69
2022/09/05 12:38:03;;;;;;;1.40;1.40;;;24.50;99.90;;;;;;4976360;28;20471;-70
2022/09/05 12:40:34;;;;;;;2.93;1.60;;;24.70;99.90;;;;;;4971078;28;20475;-69
2022/09/05 12:43:03;;;;;;;1.67;1.67;;;24.90;99.90;;;;;;4970931;28;20475;-69
2022/09/05 12:45:35;;;;;;;1.60;1.17;;;25.10;99.90;;;;;;4970951;28;20475;-69
2022/09/05 12:48:10;;;;;;;1.80;1.80;;;25.30;99.90;;;;;;4971229;28;20472;-69
2022/09/05 12:50:46;;;;;;;2.57;2.57;;;25.30;99.90;;;;;;4981094;28;20877;-70
2022/09/05 12:53:18;;;;;;;1.90;1.90;;;25.20;99.90;;;;;;4990083;28;20537;-70
2022/09/05 12:55:48;;;;;;;1.63;1.63;;;25.20;99.90;;;;;;4993810;28;20519;-70
2022/09/05 12:58:23;;;;;;;1.77;1.67;;;25.30;99.90;;;;;;4994322;28;20487;-70
2022/09/05 13:00:53;;;;;;;2.10;2.03;;;25.20;99.90;;;;;;4994170;28;20467;-70
2022/09/05 13:03:23;;;;;;;1.60;1.60;;;25.10;99.90;;;;;;4993827;28;20498;-71
2022/09/05 13:06:02;;;;;;;1.40;1.40;;;25.00;99.90;;;;;;4980482;28;20871;-69
2022/09/05 13:08:42;;;;;;;1.70;1.70;;;25.10;99.90;;;;;;4982207;28;20460;-70
2022/09/05 13:11:11;;;;;;;1.53;1.53;;;25.00;99.90;;;;;;4968678;28;20554;-70
2022/09/05 13:13:45;;;;;;;2.20;2.00;;;25.10;99.90;;;;;;4973572;28;20808;-70
2022/09/05 13:16:19;;;;;;;1.50;1.40;;;25.20;99.90;;;;;;4974192;28;20566;-69
2022/09/05 13:18:47;;;;;;;1.30;1.30;;;25.20;99.90;;;;;;4973833;28;20463;-69
2022/09/05 13:21:21;;;;;;;1.70;1.70;;;25.10;99.90;;;;;;4972698;28;20464;-70
2022/09/05 13:24:03;;;;;;;6.57;1.73;;;25.00;99.90;;;;;;4980661;28;21090;-70
2022/09/05 13:26:36;;;;;;;1.53;1.53;;;24.80;99.90;;;;;;4974432;28;20483;-70
2022/09/05 13:29:11;;;;;;;1.30;1.30;;;24.70;99.90;;;;;;4973571;28;20464;-69
2022/09/05 13:31:59;;;;;;;1.20;1.20;;;24.90;99.90;;;;;;4974206;28;20466;-70
2022/09/05 13:34:30;;;;;;;1.50;1.47;;;24.90;99.90;;;;;;4973328;28;20463;-70
2022/09/05 13:37:02;;;;;;;1.37;1.37;;;24.90;99.90;;;;;;4974147;28;20499;-70
2022/09/05 13:39:39;;;;;;;1.60;1.50;;;24.90;99.90;;;;;;4976866;28;20474;-70
2022/09/05 13:42:10;;;;;;;1.63;1.63;;;24.90;99.90;;;;;;4977090;28;20482;-70
2022/09/05 13:44:45;;;;;;;1.30;1.30;;;25.00;99.90;;;;;;4992254;28;20465;-70
2022/09/05 13:47:25;;;;;;;1.40;1.40;;;25.10;99.90;;;;;;4993027;28;20623;-70
2022/09/05 13:50:03;;;;;;;1.40;1.40;;;25.10;99.90;;;;;;4992350;28;20962;-70
2022/09/05 13:52:36;;;;;;;3.70;1.77;;;25.00;99.90;;;;;;4992751;28;20474;-70
2022/09/05 13:55:16;;;;;;;9.13;1.63;;;25.00;99.90;;;;;;4988815;28;20478;-71
2022/09/05 13:57:48;;;;;;;1.63;1.63;;;25.10;99.90;;;;;;4977935;28;20494;-70
2022/09/05 14:00:50;;;;;;;1.57;1.57;;;25.10;99.90;;;;;;4992020;28;20489;-70
2022/09/05 14:03:54;;;;;;;1.53;1.53;;;25.10;99.90;;;;;;4992448;28;20462;-70
2022/09/05 14:06:47;;;;;;;1.50;1.50;;;25.20;99.90;;;;;;4992687;28;20478;-70
2022/09/05 14:09:46;;;;;;;2.17;2.07;;;25.20;99.90;;;;;;4992038;28;20781;-70
2022/09/05 14:12:28;;;;;;;1.67;1.60;;;25.20;99.90;;;;;;4983274;28;20466;-71
2022/09/05 14:14:58;;;;;;;1.40;1.40;;;25.20;99.90;;;;;;4980248;28;20464;-70
2022/09/05 14:17:34;;;;;;;1.73;1.63;;;25.20;99.90;;;;;;4992144;28;20497;-70
2022/09/05 14:22:53;;;;;;;1.90;1.87;;;25.10;99.90;;;;;;4977178;28;20461;-70
2022/09/05 14:25:25;;;;;;;1.90;1.90;;;25.10;99.90;;;;;;4972733;28;20467;-70
2022/09/05 14:27:54;;;;;;;1.30;1.30;;;25.10;99.90;;;;;;4975397;28;20490;-70
2022/09/05 14:30:37;;;;;;;1.40;1.40;;;25.10;99.90;;;;;;4984168;28;20556;-70
2022/09/05 14:33:29;;;;;;;1.37;1.37;;;25.10;99.90;;;;;;4991775;28;20885;-70
2022/09/05 14:36:05;;;;;;;15.20;1.67;;;25.00;99.90;;;;;;4991469;28;20947;-69
2022/09/05 14:39:02;;;;;;;2.27;2.23;;;25.00;99.90;;;;;;4991537;28;20470;-70
2022/09/05 14:42:02;;;;;;;1.53;1.53;;;25.10;99.90;;;;;;4992402;28;20492;-70
2022/09/05 14:44:59;;;;;;;1.43;0.93;;;25.20;99.90;;;;;;4981709;28;20830;-70
2022/09/05 14:47:58;;;;;;;1.63;1.63;;;25.30;99.90;;;;;;4974202;28;20494;-70
2022/09/05 14:50:37;;;;;;;1.10;1.10;;;25.30;99.90;;;;;;4952323;28;20540;-70
2022/09/05 14:53:07;;;;;;;1.70;1.07;;;25.30;99.90;;;;;;4971984;28;20494;-71
2022/09/05 14:55:34;;;;;;;2.03;1.90;;;25.30;99.90;;;;;;4972497;28;20460;-71
2022/09/05 14:58:04;;;;;;;1.93;1.93;;;25.30;99.90;;;;;;4972305;28;20503;-70
2022/09/05 15:00:47;;;;;;;1.50;1.50;;;25.20;99.90;;;;;;4967597;28;20465;-70
2022/09/05 15:03:14;;;;;;;1.87;1.87;;;25.20;99.90;;;;;;4983602;28;20552;-71
2022/09/05 15:05:48;;;;;;;2.60;1.40;;;25.10;99.90;;;;;;4971919;28;20499;-71
2022/09/05 15:08:20;;;;;;;1.87;1.80;;;25.20;99.90;;;;;;4971667;28;20514;-70
2022/09/05 15:10:49;;;;;;;1.97;1.87;;;25.10;99.90;;;;;;4969087;28;20502;-71
2022/09/05 15:13:22;;;;;;;1.70;1.70;;;25.00;99.90;;;;;;4967680;28;20497;-70
2022/09/05 15:15:51;;;;;;;2.00;1.70;;;25.00;99.90;;;;;;4970842;28;20494;-71
2022/09/05 15:18:21;;;;;;;1.90;1.80;;;25.00;99.90;;;;;;4978145;28;20573;-71
2022/09/05 15:20:50;;;;;;;1.40;1.40;;;25.00;99.90;;;;;;4990743;28;21044;-71
2022/09/05 15:23:30;;;;;;;2.13;1.87;;;25.00;99.90;;;;;;4990325;28;20469;-71
2022/09/05 15:26:01;;;;;;;1.90;1.90;;;24.90;99.90;;;;;;4986904;28;21037;-71
2022/09/05 15:28:35;;;;;;;1.07;1.07;;;24.80;99.90;;;;;;4973092;28;20521;-70
2022/09/05 15:31:06;;;;;;;1.53;1.53;;;24.70;99.90;;;;;;4971814;28;20486;-71
2022/09/05 15:33:34;;;;;;;1.70;1.70;;;24.60;99.90;;;;;;4977864;28;20484;-71
2022/09/05 15:36:04;;;;;;;1.80;1.80;;;24.50;99.90;;;;;;4985399;28;20501;-70
2022/09/05 15:38:34;;;;;;;1.40;1.40;;;24.50;99.90;;;;;;4990445;28;20496;-71
2022/09/05 15:41:20;;;;;;;2.13;2.03;;;24.50;99.90;;;;;;4991097;28;20474;-71
2022/09/05 15:43:55;;;;;;;1.83;1.83;;;24.40;99.90;;;;;;4975777;28;20474;-70
2022/09/05 15:46:27;;;;;;;2.03;1.97;;;24.30;99.90;;;;;;4971448;28;20555;-71
2022/09/05 15:48:56;;;;;;;1.47;1.47;;;24.30;99.90;;;;;;4969719;28;21064;-71
2022/09/05 15:51:38;;;;;;;1.70;1.70;;;24.30;99.90;;;;;;4980618;28;20473;-71
2022/09/05 15:54:05;;;;;;;1.87;1.70;;;24.30;99.90;;;;;;4990443;28;20472;-69
2022/09/05 15:56:36;;;;;;;1.57;1.50;;;24.30;99.90;;;;;;4991219;28;20489;-69
2022/09/05 15:59:05;;;;;;;1.90;1.90;;;24.30;99.90;;;;;;4990667;28;20509;-69
2022/09/05 16:01:34;;;;;;;2.97;2.87;;;24.20;99.90;;;;;;4991388;28;20493;-69
2022/09/05 16:04:02;;;;;;;1.63;1.63;;;24.20;99.90;;;;;;4983895;28;20464;-68
2022/09/05 16:06:31;;;;;;;1.70;1.70;;;24.10;99.90;;;;;;4982717;28;20493;-70
2022/09/05 16:09:01;;;;;;;3.70;1.97;;;24.10;99.90;;;;;;4990290;28;20473;-70
2022/09/05 16:11:31;;;;;;;2.27;2.17;;;24.00;99.90;;;;;;4990869;28;20973;-69
2022/09/05 16:14:20;;;;;;;1.80;1.80;;;23.90;99.90;;;;;;4990435;28;20532;-69
2022/09/05 16:16:51;;;;;;;2.30;2.20;;;23.90;99.90;;;;;;5009452;23;20599;-72
2022/09/05 16:19:23;;;;;;;1.40;1.40;;;23.90;99.90;;;;;;4980946;28;20838;-71
2022/09/05 16:21:51;;;;;;;1.50;1.50;;;23.80;99.90;;;;;;4990161;28;20465;-72
2022/09/05 16:24:21;;;;;;;1.50;1.50;;;23.80;99.90;;;;;;4995435;28;20461;-74
2022/09/05 16:26:51;;;;;;;1.67;1.63;;;23.70;99.90;;;;;;5006993;28;20989;-73
2022/09/05 16:29:23;;;;;;;1.70;1.70;;;23.70;99.90;;;;;;5000217;28;20460;-71
2022/09/05 16:32:06;;;;;;;1.43;1.43;;;23.70;99.90;;;;;;4999939;28;20458;-71
2022/09/05 16:34:43;;;;;;;1.20;1.20;;;23.60;99.90;;;;;;4994699;28;20458;-72
2022/09/05 16:37:13;;;;;;;1.73;1.73;;;23.60;99.90;;;;;;5002927;28;20508;-70
2022/09/05 16:39:48;;;;;;;1.60;1.60;;;23.60;99.90;;;;;;4999035;28;20465;-71
2022/09/05 16:42:21;;;;;;;1.33;1.33;;;23.60;99.90;;;;;;5004285;28;20464;-71
2022/09/05 16:44:56;;;;;;;1.30;1.30;;;23.50;99.90;;;;;;5003841;28;20579;-71
2022/09/05 16:47:29;;;;;;;1.50;1.50;;;23.50;99.90;;;;;;4997684;28;20600;-73
2022/09/05 16:50:01;;;;;;;1.37;1.37;;;23.50;99.90;;;;;;4998338;28;20469;-71
2022/09/05 16:52:54;;;;;;;1.53;1.53;;;23.50;99.90;;;;;;4979507;28;20471;-71
2022/09/05 16:55:29;;;;;;;1.33;1.33;;;23.40;99.90;;;;;;4974239;28;20529;-71
2022/09/05 16:58:01;;;;;;;1.20;1.20;;;23.40;99.90;;;;;;4983133;28;20508;-71
2022/09/05 17:00:39;;;;;;;5.30;1.60;;;23.40;99.90;;;;;;4975514;28;20464;-71
2022/09/05 17:03:19;;;;;;;1.43;1.43;;;23.30;99.90;;;;;;4989890;28;20835;-71
2022/09/05 17:05:46;;;;;;;1.20;1.20;;;23.20;99.90;;;;;;4993833;28;20830;-71
2022/09/05 17:08:23;;;;;;;1.80;1.80;;;23.20;99.90;;;;;;4993905;28;20492;-72
2022/09/05 17:10:53;;;;;;;1.60;1.60;;;23.10;99.90;;;;;;4987999;28;20498;-72
2022/09/05 17:13:39;;;;;;;1.50;1.50;;;23.10;99.90;;;;;;4970676;28;20471;-73
2022/09/05 17:16:10;;;;;;;1.90;1.90;;;23.10;99.90;;;;;;4985791;28;20464;-71
2022/09/05 17:18:38;;;;;;;1.47;1.47;;;23.10;99.90;;;;;;4994202;28;20858;-72
2022/09/05 17:21:09;;;;;;;1.87;1.30;;;23.00;99.90;;;;;;4993690;28;20464;-72
2022/09/05 17:23:41;;;;;;;3.50;1.73;;;22.90;99.90;;;;;;4993231;28;20937;-72
2022/09/05 17:26:08;;;;;;;1.10;1.10;;;22.90;99.90;;;;;;4994081;28;20930;-72
2022/09/05 17:28:46;;;;;;;1.63;1.50;;;22.90;99.90;;;;;;4992551;28;20464;-71
2022/09/05 17:31:32;;;;;;;1.57;1.57;;;22.80;99.90;;;;;;4981454;28;20524;-71
2022/09/05 17:34:25;;;;;;;1.73;1.73;;;22.80;99.90;;;;;;4976373;28;20467;-72
2022/09/05 17:37:01;;;;;;;2.60;2.03;;;22.70;99.90;;;;;;4965656;28;20969;-73
2022/09/05 17:39:38;;;;;;;1.60;1.60;;;22.60;99.90;;;;;;4974777;28;20547;-72
2022/09/05 17:42:24;;;;;;;3.20;1.30;;;22.50;99.90;;;;;;4989272;28;20475;-71
2022/09/05 17:44:58;;;;;;;1.30;1.30;;;22.50;99.90;;;;;;4967431;28;20457;-72
2022/09/05 17:47:31;;;;;;;1.03;1.03;;;22.40;99.90;;;;;;4974439;28;20580;-70
2022/09/05 17:50:17;;;;;;;1.50;1.50;;;22.50;99.90;;;;;;4972268;28;20476;-71